createdAt,value
2023-02-07T00:01:11.283Z,-1.4
2023-02-07T00:03:14.903Z,-1.5
2023-02-07T00:05:18.460Z,-1.5
2023-02-07T00:07:24.701Z,-1.6
2023-02-07T00:09:28.434Z,-1.5
2023-02-07T00:11:31.877Z,-1.5
2023-02-07T00:17:45.275Z,-1.6
2023-02-07T00:19:57.623Z,-1.6
2023-02-07T00:22:01.255Z,-1.5
2023-02-07T00:24:04.806Z,-1.5
2023-02-07T00:26:11.086Z,-1.6
2023-02-07T00:28:14.768Z,-1.6
2023-02-07T00:30:18.302Z,-1.6
2023-02-07T00:32:24.482Z,-1.6
2023-02-07T00:34:28.048Z,-1.6
2023-02-07T00:42:45.037Z,-1.7
2023-02-07T00:44:51.294Z,-1.7
2023-02-07T00:46:54.858Z,-1.7
2023-02-07T00:48:58.415Z,-1.7
2023-02-07T00:51:04.660Z,-1.7
2023-02-07T00:53:08.248Z,-1.8
2023-02-07T00:55:11.810Z,-1.9
2023-02-07T00:57:18.042Z,-1.9
2023-02-07T00:59:21.639Z,-1.9
2023-02-07T01:01:25.253Z,-1.9
2023-02-07T01:03:31.442Z,-1.9
2023-02-07T01:05:35.154Z,-1.8
2023-02-07T01:07:38.578Z,-1.7
2023-02-07T01:09:44.799Z,-1.8
2023-02-07T01:24:15.210Z,-1.9
2023-02-07T01:26:18.756Z,-1.9
2023-02-07T01:28:24.989Z,-2.1
2023-02-07T01:32:32.114Z,-2.1
2023-02-07T01:34:38.343Z,-2.1
2023-02-07T01:38:45.555Z,-2
2023-02-07T01:40:51.777Z,-2.1
2023-02-07T01:42:55.327Z,-2.1
2023-02-07T01:44:58.907Z,-2.1
2023-02-07T01:47:05.116Z,-2.1
2023-02-07T01:49:08.706Z,-2.1
2023-02-07T01:51:12.234Z,-2.2
2023-02-07T01:55:22.012Z,-2.2
2023-02-07T01:57:25.604Z,-2.3
2023-02-07T01:59:38.104Z,-2.3
2023-02-07T02:01:41.649Z,-2.4
2023-02-07T02:03:45.168Z,-2.3
2023-02-07T02:07:55.032Z,-2.3
2023-02-07T02:09:58.591Z,-2.4
2023-02-07T02:14:08.317Z,-2.4
2023-02-07T02:18:18.189Z,-2.4
2023-02-07T02:20:21.749Z,-2.4
2023-02-07T02:32:48.351Z,-2.4
2023-02-07T02:36:58.128Z,-2.4
2023-02-07T02:39:01.648Z,-2.5
2023-02-07T02:50:13.809Z,-2.6
2023-02-07T02:52:17.340Z,-2.2
2023-02-07T02:54:20.974Z,-2.3
2023-02-07T02:56:27.180Z,-2.3
2023-02-07T02:58:30.722Z,-2.4
2023-02-07T03:00:34.297Z,-2.4
2023-02-07T03:02:40.568Z,-2.4
2023-02-07T03:04:44.160Z,-2.5
2023-02-07T03:06:47.690Z,-2.5
2023-02-07T03:08:53.876Z,-2.5
2023-02-07T03:10:57.425Z,-2.4
2023-02-07T03:13:01.056Z,-2.4
2023-02-07T03:15:07.340Z,-2.4
2023-02-07T03:17:11.006Z,-2.3
2023-02-07T03:19:14.521Z,-2.5
2023-02-07T03:21:20.735Z,-2.5
2023-02-07T03:23:24.290Z,-2.5
2023-02-07T03:25:27.919Z,-2.5
2023-02-07T03:27:34.212Z,-2.5
2023-02-07T03:29:37.711Z,-2.6
2023-02-07T03:31:41.356Z,-2.6
2023-02-07T03:33:47.463Z,-2.6
2023-02-07T03:35:51.037Z,-2.7
2023-02-07T03:37:54.640Z,-2.7
2023-02-07T03:40:00.834Z,-2.8
2023-02-07T03:42:04.488Z,-2.8
2023-02-07T03:44:07.989Z,-2.8
2023-02-07T03:46:14.296Z,-2.8
2023-02-07T03:48:17.868Z,-2.8
2023-02-07T03:50:21.374Z,-2.8
2023-02-07T03:52:27.613Z,-2.9
2023-02-07T03:54:31.219Z,-2.9
2023-02-07T03:56:34.751Z,-2.9
2023-02-07T03:58:40.953Z,-2.8
2023-02-07T04:02:48.049Z,-2.9
2023-02-07T04:06:57.838Z,-2.9
2023-02-07T04:11:07.539Z,-3
2023-02-07T04:13:11.112Z,-3.1
2023-02-07T04:17:20.904Z,-3.2
2023-02-07T04:19:24.458Z,-3.2
2023-02-07T04:21:27.958Z,-3.2
2023-02-07T04:23:34.173Z,-3.2
2023-02-07T04:25:38.088Z,-3.3
2023-02-07T04:27:41.340Z,-3.2
2023-02-07T04:29:47.580Z,-3.2
2023-02-07T04:31:51.197Z,-3.2
2023-02-07T04:33:54.713Z,-3.2
2023-02-07T04:36:00.908Z,-3.2
2023-02-07T04:38:04.383Z,-3.2
2023-02-07T04:40:07.921Z,-3.1
2023-02-07T04:42:14.106Z,-3.2
2023-02-07T04:44:17.654Z,-3.3
2023-02-07T04:46:21.212Z,-3.3
2023-02-07T04:50:30.991Z,-3.3
2023-02-07T04:52:34.542Z,-3.4
2023-02-07T04:57:44.037Z,-3.5
2023-02-07T04:59:47.634Z,-3.5
2023-02-07T05:01:51.250Z,-3.5
2023-02-07T05:03:57.515Z,-3.5
2023-02-07T05:06:01.053Z,-3.5
2023-02-07T05:08:04.536Z,-3.5
2023-02-07T05:17:13.124Z,-3.5
2023-02-07T05:19:16.630Z,-3.5
2023-02-07T05:21:20.145Z,-3.6
2023-02-07T05:23:26.287Z,-3.5
2023-02-07T05:25:29.799Z,-3.5
2023-02-07T05:27:33.276Z,-3.5
2023-02-07T05:29:39.513Z,-3.6
2023-02-07T05:31:43.262Z,-3.7
2023-02-07T05:33:46.599Z,-3.7
2023-02-07T05:35:52.744Z,-3.6
2023-02-07T05:37:56.298Z,-3.7
2023-02-07T05:39:59.860Z,-3.7
2023-02-07T05:42:06.081Z,-3.6
2023-02-07T05:44:09.549Z,-3.6
2023-02-07T05:48:19.225Z,-3.7
2023-02-07T05:50:22.814Z,-3.7
2023-02-07T05:54:32.654Z,-3.9
2023-02-07T05:58:39.727Z,-3.9
2023-02-07T06:02:49.794Z,-3.9
2023-02-07T06:04:53.124Z,-4
2023-02-07T06:06:59.317Z,-4
2023-02-07T06:09:02.806Z,-4
2023-02-07T06:11:06.294Z,-3.9
2023-02-07T06:13:12.489Z,-3.9
2023-02-07T06:15:15.923Z,-3.9
2023-02-07T06:17:19.525Z,-3.9
2023-02-07T06:19:25.755Z,-4
2023-02-07T06:21:45.109Z,-3.9
2023-02-07T06:23:32.855Z,-3.9
2023-02-07T06:27:42.702Z,-4
2023-02-07T06:37:05.667Z,-4
2023-02-07T06:39:09.134Z,-3.9
2023-02-07T06:43:18.857Z,-4
2023-02-07T06:45:22.421Z,-4.1
2023-02-07T06:47:28.691Z,-4.1
2023-02-07T06:49:32.168Z,-4.1
2023-02-07T06:51:35.651Z,-4
2023-02-07T06:53:41.876Z,-4
2023-02-07T06:55:45.462Z,-4.1
2023-02-07T06:57:49.029Z,-4.1
2023-02-07T06:59:55.303Z,-4.1
2023-02-07T07:01:58.740Z,-4.2
2023-02-07T07:04:02.194Z,-4.2
2023-02-07T07:08:11.891Z,-4.1
2023-02-07T07:10:15.450Z,-4
2023-02-07T07:12:21.490Z,-4.1
2023-02-07T07:14:25.200Z,-4.1
2023-02-07T07:16:28.628Z,-4.1
2023-02-07T07:18:34.862Z,-4.2
2023-02-07T07:24:48.014Z,-4.1
2023-02-07T07:26:51.603Z,-4
2023-02-07T07:28:55.175Z,-4
2023-02-07T07:31:01.536Z,-3.8
2023-02-07T07:33:04.975Z,-3.8
2023-02-07T07:35:08.563Z,-3.8
2023-02-07T07:37:14.792Z,-3.7
2023-02-07T07:39:18.362Z,-3.6
2023-02-07T07:41:21.914Z,-3.6
2023-02-07T07:43:28.141Z,-3.6
2023-02-07T07:49:41.329Z,-3.3
2023-02-07T07:51:44.919Z,-3.2
2023-02-07T07:53:48.506Z,-3.1
2023-02-07T07:57:58.345Z,-2.9
2023-02-07T08:00:01.964Z,-2.9
2023-02-07T08:02:08.078Z,-2.8
2023-02-07T08:04:11.673Z,-2.8
2023-02-07T08:06:15.182Z,-2.7
2023-02-07T08:08:21.377Z,-2.6
2023-02-07T08:10:24.905Z,-2.5
2023-02-07T08:12:28.413Z,-2.4
2023-02-07T08:14:34.662Z,-2.3
2023-02-07T08:16:38.237Z,-2.2
2023-02-07T08:18:41.806Z,-2.1
2023-02-07T08:20:48.057Z,-2
2023-02-07T08:22:51.591Z,-1.9
2023-02-07T08:27:01.277Z,-1.8
2023-02-07T08:29:04.841Z,-1.7
2023-02-07T08:31:08.542Z,-1.6
2023-02-07T08:33:14.777Z,-1.5
2023-02-07T08:35:18.295Z,-1.4
2023-02-07T08:37:21.862Z,-1.4
2023-02-07T08:39:28.147Z,-1.3
2023-02-07T08:41:31.700Z,-1.2
2023-02-07T08:43:35.272Z,-1
2023-02-07T08:45:41.684Z,-0.9
2023-02-07T08:47:45.202Z,-1
2023-02-07T08:49:48.716Z,-0.9
2023-02-07T08:51:54.939Z,-0.7
2023-02-07T08:53:58.525Z,-0.7
2023-02-07T09:03:18.399Z,-0.7
2023-02-07T09:05:21.921Z,-0.7
2023-02-07T09:07:28.170Z,-0.7
2023-02-07T09:09:31.759Z,-0.6
2023-02-07T09:13:41.580Z,-0.5
2023-02-07T09:15:45.197Z,-0.5
2023-02-07T09:17:48.773Z,-0.5
2023-02-07T09:19:55.096Z,-0.4
2023-02-07T09:21:58.637Z,-0.4
2023-02-07T09:24:02.239Z,-0.4
2023-02-07T09:26:08.566Z,-0.4
2023-02-07T09:28:12.165Z,-0.3
2023-02-07T09:30:15.702Z,-0.2
2023-02-07T09:32:21.952Z,-0.1
2023-02-07T09:36:29.184Z,0.2
2023-02-07T09:40:39.448Z,0.3
2023-02-07T09:42:42.683Z,0.3
2023-02-07T09:44:49.154Z,0.4
2023-02-07T09:51:02.456Z,0.5
2023-02-07T09:53:06.056Z,0.5
2023-02-07T09:55:09.691Z,0.6
2023-02-07T09:57:15.987Z,0.8
2023-02-07T09:59:19.618Z,0.8
2023-02-07T10:01:23.283Z,0.9
2023-02-07T10:03:29.540Z,0.9
2023-02-07T10:05:33.190Z,0.9
2023-02-07T10:07:36.805Z,1
2023-02-07T10:09:43.088Z,1.1
2023-02-07T10:13:50.378Z,1.3
2023-02-07T10:15:56.734Z,1.3
2023-02-07T10:18:00.328Z,1.5
2023-02-07T10:20:03.938Z,1.7
2023-02-07T10:25:15.604Z,1.8
2023-02-07T10:27:19.246Z,2.2
2023-02-07T10:29:22.914Z,2.4
2023-02-07T10:31:29.386Z,2.5
2023-02-07T10:33:32.875Z,2.6
2023-02-07T10:44:53.896Z,3.2
2023-02-07T10:47:22.148Z,3.5
2023-02-07T10:49:26.103Z,3.5
2023-02-07T10:51:29.519Z,3.5
2023-02-07T10:53:42.972Z,3.7
2023-02-07T10:55:40.234Z,3.8
2023-02-07T10:57:50.933Z,3.7
2023-02-07T10:59:47.643Z,3.7
2023-02-07T11:01:51.344Z,3.8
2023-02-07T11:03:55.084Z,3.6
2023-02-07T11:05:58.809Z,3.6
2023-02-07T11:08:05.799Z,3.6
2023-02-07T11:12:13.255Z,4.1
2023-02-07T11:16:20.856Z,4.8
2023-02-07T11:20:28.224Z,5.2
2023-02-07T11:22:35.222Z,6.3
2023-02-07T11:24:38.776Z,6.5
2023-02-07T11:30:50.980Z,7.6
2023-02-07T11:32:54.675Z,8.3
2023-02-07T11:34:58.413Z,7.4
2023-02-07T11:37:05.456Z,5.1
2023-02-07T11:39:09.246Z,4.8
2023-02-07T11:41:13.007Z,4.6
2023-02-07T11:42:16.525Z,4.4
2023-02-07T11:44:20.310Z,4.3
2023-02-07T11:46:24.172Z,4.3
2023-02-07T11:48:27.831Z,4.2
2023-02-07T11:50:34.950Z,4.2
2023-02-07T11:52:38.646Z,4.1
2023-02-07T11:54:42.424Z,4.1
2023-02-07T11:56:46.192Z,4.1
2023-02-07T11:58:49.942Z,4
2023-02-07T12:00:53.736Z,4
2023-02-07T12:02:57.498Z,4
2023-02-07T12:07:08.301Z,6.5
2023-02-07T12:13:19.611Z,10.5
2023-02-07T12:15:23.365Z,11.3
2023-02-07T12:17:27.115Z,12.1
2023-02-07T12:19:34.171Z,12.4
2023-02-07T12:21:37.920Z,12.4
2023-02-07T12:23:43.254Z,11.6
2023-02-07T12:25:45.483Z,11.9
2023-02-07T12:27:49.289Z,11.3
2023-02-07T12:29:53.027Z,11
2023-02-07T12:36:07.629Z,9.3
2023-02-07T12:38:11.421Z,9.1
2023-02-07T12:41:18.715Z,10.9
2023-02-07T12:47:33.356Z,9.8
2023-02-07T12:49:37.143Z,10.1
2023-02-07T12:51:40.924Z,10.8
2023-02-07T12:55:48.533Z,11.7
2023-02-07T12:57:52.307Z,11.3
2023-02-07T12:59:56.087Z,10.6
2023-02-07T13:06:10.751Z,9.2
2023-02-07T13:10:18.343Z,8.6
2023-02-07T13:12:22.149Z,8.9
2023-02-07T13:20:40.642Z,8.5
2023-02-07T13:22:44.480Z,9.8
2023-02-07T13:24:48.268Z,10.9
2023-02-07T13:26:52.052Z,10.8
2023-02-07T13:28:55.865Z,10.4
2023-02-07T13:31:03.019Z,11.2
2023-02-07T13:33:06.888Z,11.1
2023-02-07T13:35:10.535Z,9.9
2023-02-07T13:38:17.874Z,8.7
2023-02-07T13:40:21.668Z,8.9
2023-02-07T13:42:25.470Z,8.8
2023-02-07T13:48:40.142Z,9.5
2023-02-07T13:50:43.964Z,8.7
2023-02-07T13:52:47.787Z,8.2
2023-02-07T13:54:51.527Z,7.8
2023-02-07T13:56:55.347Z,9.3
2023-02-07T13:59:02.640Z,8.4
2023-02-07T14:01:06.245Z,8
2023-02-07T14:03:10.049Z,7.2
2023-02-07T14:05:13.792Z,7.2
2023-02-07T14:07:17.612Z,6.6
2023-02-07T14:09:21.532Z,6.1
2023-02-07T14:11:25.202Z,6.2
2023-02-07T14:13:32.258Z,6.1
2023-02-07T14:15:36.091Z,5.8
2023-02-07T14:17:39.825Z,5.6
2023-02-07T14:19:43.642Z,5.9
2023-02-07T14:21:47.435Z,5.9
2023-02-07T14:23:51.203Z,5.4
2023-02-07T14:25:55.004Z,5.3
2023-02-07T14:28:02.140Z,5.1
2023-02-07T14:30:05.889Z,5.2
2023-02-07T14:32:09.664Z,5.1
2023-02-07T14:34:32.178Z,5.4
2023-02-07T14:36:35.976Z,5.4
2023-02-07T14:38:39.750Z,5.2
2023-02-07T14:40:48.440Z,5
2023-02-07T14:42:52.210Z,5
2023-02-07T14:44:55.996Z,5
2023-02-07T14:46:59.774Z,4.9
2023-02-07T14:49:03.542Z,4.8
2023-02-07T14:51:07.353Z,4.9
2023-02-07T14:53:11.127Z,4.9
2023-02-07T14:55:18.178Z,4.7
2023-02-07T14:57:21.967Z,4.7
2023-02-07T14:59:25.714Z,4.7
2023-02-07T15:01:29.558Z,4.7
2023-02-07T15:03:34.976Z,4.6
2023-02-07T15:05:37.072Z,4.6
2023-02-07T15:07:40.838Z,4.6
2023-02-07T15:09:47.872Z,4.7
2023-02-07T15:11:59.791Z,4.8
2023-02-07T15:15:59.223Z,4.9
2023-02-07T15:18:02.993Z,4.8
2023-02-07T15:24:17.571Z,4.6
2023-02-07T15:29:28.586Z,4.5
2023-02-07T15:31:32.583Z,4.4
2023-02-07T15:35:39.889Z,4.4
2023-02-07T15:37:47.167Z,4.3
2023-02-07T15:39:50.706Z,4.3
2023-02-07T15:41:54.474Z,4.2
2023-02-07T15:43:58.208Z,4.1
2023-02-07T15:50:09.501Z,3.9
2023-02-07T15:54:20.304Z,3.8
2023-02-07T15:58:27.811Z,3.8
2023-02-07T16:04:39.106Z,4.1
2023-02-07T16:06:46.150Z,4.1
2023-02-07T16:08:49.881Z,4
2023-02-07T16:12:57.382Z,3.5
2023-02-07T16:15:01.103Z,3.3
2023-02-07T16:17:04.929Z,3.2
2023-02-07T16:19:08.598Z,3.1
2023-02-07T16:25:23.092Z,3
2023-02-07T16:26:26.578Z,2.9
2023-02-07T16:28:30.345Z,2.8
2023-02-07T16:30:34.074Z,2.7
2023-02-07T16:32:37.809Z,2.5
2023-02-07T16:34:58.923Z,2.4
2023-02-07T16:36:48.549Z,2.3
2023-02-07T16:38:52.290Z,2.2
2023-02-07T16:40:56.010Z,2.2
2023-02-07T16:42:59.728Z,2.2
2023-02-07T16:45:03.485Z,2.1
2023-02-07T16:47:07.203Z,1.9
2023-02-07T16:49:14.173Z,1.7
2023-02-07T16:51:17.875Z,1.6
2023-02-07T16:53:21.619Z,1.5
2023-02-07T16:55:25.312Z,1.5
2023-02-07T16:57:29.042Z,1.5
2023-02-07T16:59:32.746Z,1.4
2023-02-07T17:01:36.438Z,1.3
2023-02-07T17:03:43.438Z,1.2
2023-02-07T17:05:47.103Z,1.2
2023-02-07T17:07:50.862Z,1.1
2023-02-07T17:09:54.499Z,1.1
2023-02-07T17:11:58.188Z,1.1
2023-02-07T17:22:19.910Z,0.6
2023-02-07T17:25:27.099Z,0.5
2023-02-07T17:27:30.747Z,0.5
2023-02-07T17:29:34.463Z,0.5
2023-02-07T17:33:45.104Z,0.4
2023-02-07T17:35:48.756Z,0.4
2023-02-07T17:37:52.410Z,0.5
2023-02-07T17:39:56.089Z,0.5
2023-02-07T17:41:59.768Z,0.4
2023-02-07T17:44:03.434Z,0.4
2023-02-07T17:46:10.425Z,0.3
2023-02-07T17:48:14.023Z,0.3
2023-02-07T17:50:17.698Z,0.3
2023-02-07T17:52:21.353Z,0.4
2023-02-07T17:54:25.008Z,0.3
2023-02-07T17:56:28.670Z,0.3
2023-02-07T17:58:32.317Z,0.4
2023-02-07T18:00:39.851Z,0.3
2023-02-07T18:02:43.034Z,0.3
2023-02-07T18:04:46.580Z,0.3
2023-02-07T18:06:50.264Z,0.4
2023-02-07T18:08:56.353Z,0.5
2023-02-07T18:10:57.548Z,0.4
2023-02-07T18:13:01.213Z,0.4
2023-02-07T18:15:08.133Z,0.3
2023-02-07T18:17:11.796Z,0.2
2023-02-07T18:19:15.456Z,0.1
2023-02-07T18:21:21.743Z,0.1
2023-02-07T18:25:29.032Z,-0.2
2023-02-07T18:27:35.349Z,-0.3
2023-02-07T18:29:39.016Z,-0.4
2023-02-07T18:33:48.952Z,-0.5
2023-02-07T18:37:56.215Z,-0.5
2023-02-07T18:44:09.785Z,-0.5
2023-02-07T18:48:19.687Z,-0.7
2023-02-07T18:57:40.148Z,-0.7
2023-02-07T18:59:43.755Z,-0.7
2023-02-07T19:05:01.378Z,-0.7
2023-02-07T19:07:06.522Z,-0.9
2023-02-07T19:09:08.621Z,-1
2023-02-07T19:11:14.825Z,-1.1
2023-02-07T19:13:18.471Z,-1.2
2023-02-07T19:15:22.063Z,-1.2
2023-02-07T19:17:28.422Z,-1.2
2023-02-07T19:19:31.939Z,-1.2
2023-02-07T19:21:35.512Z,-1.3
2023-02-07T19:23:41.779Z,-1.3
2023-02-07T19:25:45.381Z,-1.3
2023-02-07T19:27:49.081Z,-1.3
2023-02-07T19:31:58.956Z,-1.3
2023-02-07T19:34:02.403Z,-1.3
2023-02-07T19:36:08.677Z,-1.4
2023-02-07T19:42:22.110Z,-1.2
2023-02-07T19:46:29.339Z,-1.1
2023-02-07T19:50:39.356Z,-1.2
2023-02-07T19:52:42.703Z,-1.3
2023-02-07T19:54:48.954Z,-1.3
2023-02-07T19:56:52.543Z,-1.3
2023-02-07T19:58:56.127Z,-1.2
2023-02-07T20:01:02.438Z,-1.3
2023-02-07T20:03:05.987Z,-1.4
2023-02-07T20:05:09.561Z,-1.4
2023-02-07T20:07:15.813Z,-1.4
2023-02-07T20:09:19.408Z,-1.5
2023-02-07T20:11:23.000Z,-1.5
2023-02-07T20:13:29.270Z,-1.6
2023-02-07T20:15:32.854Z,-1.6
2023-02-07T20:17:36.419Z,-1.7
2023-02-07T20:19:42.644Z,-1.7
2023-02-07T20:21:46.252Z,-1.7
2023-02-07T20:23:49.930Z,-1.7
2023-02-07T20:25:56.028Z,-1.7
2023-02-07T20:27:59.626Z,-1.8
2023-02-07T20:32:09.401Z,-1.7
2023-02-07T20:34:12.983Z,-1.9
2023-02-07T20:42:29.938Z,-2
2023-02-07T20:46:39.754Z,-2
2023-02-07T20:48:43.323Z,-2.1
2023-02-07T20:50:49.534Z,-2.2
2023-02-07T20:52:53.112Z,-2.2
2023-02-07T20:54:56.657Z,-2.2
2023-02-07T20:57:02.837Z,-2.1
2023-02-07T20:59:06.456Z,-2
2023-02-07T21:01:10.145Z,-2.1
2023-02-07T21:05:19.878Z,-2.1
2023-02-07T21:07:23.422Z,-2.2
2023-02-07T21:15:49.835Z,-2.1
2023-02-07T21:17:46.581Z,-2.2
2023-02-07T21:19:50.152Z,-2.2
2023-02-07T21:21:56.448Z,-2.3
2023-02-07T21:24:00.129Z,-2.1
2023-02-07T21:38:30.470Z,-2.4
2023-02-07T21:40:36.694Z,-2.4
2023-02-07T21:42:40.311Z,-2.4
2023-02-07T21:44:43.894Z,-2.4
2023-02-07T21:46:50.189Z,-2.4
2023-02-07T21:48:53.770Z,-2.5
2023-02-07T21:50:57.317Z,-2.4
2023-02-07T21:55:07.187Z,-2.5
2023-02-07T21:57:10.809Z,-2.5
2023-02-07T22:01:20.587Z,-2.6
2023-02-07T22:05:30.338Z,-2.6
2023-02-07T22:13:47.238Z,-2.7
2023-02-07T22:15:50.749Z,-2.7
2023-02-07T22:17:56.972Z,-2.8
2023-02-07T22:20:00.540Z,-2.8
2023-02-07T22:22:04.048Z,-2.7
2023-02-07T22:24:10.278Z,-2.8
2023-02-07T22:26:13.786Z,-2.8
2023-02-07T22:28:17.471Z,-2.8
2023-02-07T22:30:23.668Z,-2.9
2023-02-07T22:32:27.157Z,-3
2023-02-07T22:34:30.828Z,-2.9
2023-02-07T22:45:42.984Z,-3
2023-02-07T22:49:52.781Z,-3.2
2023-02-07T22:51:56.356Z,-3.2
2023-02-07T22:53:59.951Z,-3.2
2023-02-07T22:56:06.188Z,-3.2
2023-02-07T22:58:09.759Z,-3.1
2023-02-07T23:00:13.379Z,-3
2023-02-07T23:02:19.653Z,-3
2023-02-07T23:04:23.175Z,-3.1
2023-02-07T23:10:36.451Z,-3.2
2023-02-07T23:12:39.982Z,-3.3
2023-02-07T23:14:46.245Z,-3.3
2023-02-07T23:16:49.859Z,-3.2
2023-02-07T23:18:53.476Z,-3.2
2023-02-07T23:20:59.732Z,-3.1
2023-02-07T23:23:03.357Z,-3.2
2023-02-07T23:25:06.954Z,-3.3
2023-02-07T23:32:26.494Z,-3.4
2023-02-07T23:34:30.044Z,-3.5
2023-02-07T23:38:39.708Z,-3.4
2023-02-07T23:40:43.276Z,-3.3
2023-02-07T23:42:49.472Z,-3.4
2023-02-07T23:49:03.051Z,-3.4
2023-02-07T23:53:09.958Z,-3.5
2023-02-07T23:55:16.183Z,-3.4
2023-02-07T23:57:19.769Z,-3.4
